createdAt,value
2023-03-15T00:03:40.043Z,5.00
2023-03-15T00:08:41.952Z,4.97
2023-03-15T00:13:44.295Z,4.91
2023-03-15T00:18:47.355Z,4.87
2023-03-15T00:23:52.263Z,4.81
2023-03-15T00:28:54.087Z,4.77
2023-03-15T00:33:56.005Z,4.73
2023-03-15T00:38:58.289Z,4.70
2023-03-15T00:44:00.174Z,4.68
2023-03-15T00:49:02.013Z,4.69
2023-03-15T00:54:03.978Z,4.70
2023-03-15T00:59:06.130Z,4.71
2023-03-15T01:04:08.116Z,4.68
2023-03-15T01:09:10.165Z,4.65
2023-03-15T01:14:12.299Z,4.64
2023-03-15T01:19:15.055Z,4.65
2023-03-15T01:24:20.943Z,4.65
2023-03-15T01:29:25.254Z,4.64
2023-03-15T01:34:27.465Z,4.65
2023-03-15T01:39:31.151Z,4.63
2023-03-15T01:44:51.576Z,4.62
2023-03-15T01:50:05.449Z,4.60
2023-03-15T01:55:13.235Z,4.55
2023-03-15T02:00:27.856Z,4.53
2023-03-15T02:05:38.224Z,4.52
2023-03-15T02:10:54.777Z,4.50
2023-03-15T02:16:00.037Z,4.45
2023-03-15T02:21:21.544Z,4.44
2023-03-15T02:26:26.113Z,4.42
2023-03-15T02:31:28.136Z,4.38
2023-03-15T02:36:34.410Z,4.37
2023-03-15T02:41:42.874Z,4.37
2023-03-15T02:46:47.987Z,4.33
2023-03-15T02:51:51.052Z,4.34
2023-03-15T02:56:55.978Z,4.31
2023-03-15T03:01:58.595Z,4.30
2023-03-15T03:07:00.650Z,4.23
2023-03-15T03:12:10.359Z,4.19
2023-03-15T03:17:13.250Z,4.17
2023-03-15T03:22:15.553Z,4.14
2023-03-15T03:27:18.217Z,4.09
2023-03-15T03:32:22.541Z,4.05
2023-03-15T03:37:24.712Z,4.02
2023-03-15T03:42:35.866Z,4.00
2023-03-15T03:47:39.097Z,4.01
2023-03-15T03:52:44.006Z,4.01
2023-03-15T03:57:55.794Z,3.97
2023-03-15T04:03:27.707Z,3.94
2023-03-15T04:08:38.259Z,3.93
2023-03-15T04:13:42.227Z,3.91
2023-03-15T04:18:45.187Z,3.89
2023-03-15T04:23:47.295Z,3.87
2023-03-15T04:28:59.493Z,3.87
2023-03-15T04:34:31.771Z,3.83
2023-03-15T04:39:33.647Z,3.79
2023-03-15T04:44:44.819Z,3.78
2023-03-15T04:49:49.539Z,3.75
2023-03-15T04:55:15.206Z,3.73
2023-03-15T05:00:40.247Z,3.68
2023-03-15T05:05:59.024Z,3.63
2023-03-15T05:11:05.263Z,3.60
2023-03-15T05:16:25.912Z,3.56
2023-03-15T05:21:57.114Z,3.53
2023-03-15T05:27:17.444Z,3.52
2023-03-15T05:32:34.937Z,3.53
2023-03-15T05:37:56.239Z,3.53
2023-03-15T05:42:58.580Z,3.53
2023-03-15T05:48:20.755Z,3.54
2023-03-15T05:53:30.242Z,3.57
2023-03-15T05:59:07.355Z,3.60
2023-03-15T06:04:32.283Z,3.62
2023-03-15T06:09:35.483Z,3.65
2023-03-15T06:14:38.876Z,3.70
2023-03-15T06:19:45.805Z,3.76
2023-03-15T06:24:47.663Z,3.79
2023-03-15T06:29:50.767Z,3.84
2023-03-15T06:34:55.925Z,3.87
2023-03-15T06:39:57.907Z,3.90
2023-03-15T06:45:01.425Z,3.93
2023-03-15T06:50:03.922Z,3.95
2023-03-15T06:55:06.887Z,3.98
2023-03-15T07:00:11.481Z,4.02
2023-03-15T07:05:13.453Z,4.07
2023-03-15T07:10:15.415Z,4.09
2023-03-15T07:15:17.709Z,4.15
2023-03-15T07:20:19.724Z,4.20
2023-03-15T07:25:25.992Z,4.28
2023-03-15T07:30:28.073Z,4.35
2023-03-15T07:35:30.183Z,4.42
2023-03-15T07:40:32.259Z,4.54
2023-03-15T07:45:35.292Z,4.67
2023-03-15T07:50:37.588Z,4.83
2023-03-15T07:55:39.642Z,4.85
2023-03-15T08:00:41.610Z,4.76
2023-03-15T08:05:43.341Z,4.84
2023-03-15T08:10:46.077Z,4.96
2023-03-15T08:15:48.300Z,5.07
2023-03-15T08:20:50.979Z,5.17
2023-03-15T08:25:52.935Z,5.34
2023-03-15T08:30:54.944Z,5.61
2023-03-15T08:35:57.100Z,5.63
2023-03-15T08:40:59.450Z,5.51
2023-03-15T08:46:02.112Z,5.36
2023-03-15T08:51:09.299Z,5.33
2023-03-15T08:56:11.835Z,5.25
2023-03-15T09:01:16.044Z,5.11
2023-03-15T09:06:17.979Z,5.04
2023-03-15T09:11:21.058Z,5.00
2023-03-15T09:16:23.082Z,4.91
2023-03-15T09:21:25.276Z,4.86
2023-03-15T09:26:27.330Z,4.91
2023-03-15T09:31:29.693Z,5.04
2023-03-15T09:36:32.908Z,5.32
2023-03-15T09:41:47.244Z,5.57
2023-03-15T09:47:10.441Z,5.65
2023-03-15T09:52:30.180Z,5.67
2023-03-15T09:57:43.569Z,5.68
2023-03-15T10:03:07.060Z,5.60
2023-03-15T10:08:15.368Z,5.49
2023-03-15T10:13:35.145Z,5.40
2023-03-15T10:18:48.384Z,5.43
2023-03-15T10:23:54.059Z,5.38
2023-03-15T10:28:56.509Z,5.36
2023-03-15T10:33:58.322Z,5.35
2023-03-15T10:39:00.267Z,5.36
2023-03-15T10:44:24.672Z,5.34
2023-03-15T10:49:37.715Z,5.32
2023-03-15T10:54:42.100Z,5.29
2023-03-15T11:00:10.220Z,5.38
2023-03-15T11:05:17.589Z,5.47
2023-03-15T11:10:28.610Z,5.40
2023-03-15T11:15:30.488Z,5.37
2023-03-15T11:20:39.368Z,5.30
2023-03-15T11:25:41.462Z,5.27
2023-03-15T11:30:44.805Z,5.27
2023-03-15T11:35:48.542Z,5.24
2023-03-15T11:40:56.873Z,5.21
2023-03-15T11:46:03.734Z,5.17
2023-03-15T11:51:19.418Z,5.09
2023-03-15T11:56:26.103Z,5.07
2023-03-15T12:01:28.226Z,5.05
2023-03-15T12:06:38.358Z,5.17
2023-03-15T12:11:41.774Z,5.34
2023-03-15T12:16:46.476Z,5.45
2023-03-15T12:21:54.316Z,5.57
2023-03-15T12:27:18.346Z,5.66
2023-03-15T12:32:20.846Z,5.77
2023-03-15T12:37:27.555Z,5.90
2023-03-15T12:42:29.358Z,5.92
2023-03-15T12:47:47.648Z,5.79
2023-03-15T12:52:53.637Z,5.67
2023-03-15T12:57:58.002Z,5.65
2023-03-15T13:03:06.097Z,5.63
2023-03-15T13:08:23.070Z,5.61
2023-03-15T13:13:54.142Z,5.57
2023-03-15T13:19:19.009Z,5.61
2023-03-15T13:24:33.769Z,5.59
2023-03-15T13:29:36.407Z,5.57
2023-03-15T13:34:38.583Z,5.53
2023-03-15T13:40:04.172Z,5.43
2023-03-15T13:45:09.185Z,5.46
2023-03-15T13:50:18.084Z,5.54
2023-03-15T13:55:23.330Z,5.51
2023-03-15T14:00:27.022Z,5.48
2023-03-15T14:05:32.841Z,5.54
2023-03-15T14:10:40.928Z,5.56
2023-03-15T14:15:47.809Z,5.60
2023-03-15T14:20:54.400Z,5.65
2023-03-15T14:26:19.646Z,5.67
2023-03-15T14:31:25.169Z,5.73
2023-03-15T14:36:35.590Z,5.88
2023-03-15T14:41:38.709Z,5.98
2023-03-15T14:46:40.481Z,5.97
2023-03-15T14:51:42.480Z,6.02
2023-03-15T14:56:44.574Z,6.19
2023-03-15T15:01:51.592Z,6.28
2023-03-15T15:06:55.682Z,6.29
2023-03-15T15:11:58.138Z,6.21
2023-03-15T15:17:00.084Z,6.09
2023-03-15T15:22:02.084Z,6.00
2023-03-15T15:27:04.026Z,5.93
2023-03-15T15:32:06.155Z,5.89
2023-03-15T15:37:11.757Z,5.85
2023-03-15T15:42:13.647Z,5.84
2023-03-15T15:47:15.459Z,5.82
2023-03-15T15:52:17.339Z,5.76
2023-03-15T15:57:23.484Z,5.73
2023-03-15T16:02:26.026Z,5.70
2023-03-15T16:07:28.277Z,5.68
2023-03-15T16:12:33.259Z,5.66
2023-03-15T16:17:35.185Z,5.62
2023-03-15T16:22:40.267Z,5.56
2023-03-15T16:27:44.964Z,5.49
2023-03-15T16:32:47.087Z,5.44
2023-03-15T16:37:58.139Z,5.40
2023-03-15T16:43:00.426Z,5.34
2023-03-15T16:48:02.271Z,5.31
2023-03-15T16:53:08.067Z,5.26
2023-03-15T16:58:18.210Z,5.19
2023-03-15T17:03:21.374Z,5.15
2023-03-15T17:08:23.915Z,5.10
2023-03-15T17:13:28.938Z,5.04
2023-03-15T17:18:31.011Z,5.00
2023-03-15T17:23:33.048Z,4.97
2023-03-15T17:28:34.873Z,4.92
2023-03-15T17:33:36.705Z,4.87
2023-03-15T17:38:42.397Z,4.85
2023-03-15T17:43:44.441Z,4.82
2023-03-15T17:48:47.140Z,4.75
2023-03-15T17:53:50.007Z,4.71
2023-03-15T17:58:52.696Z,4.70
2023-03-15T18:03:55.867Z,4.68
2023-03-15T18:08:57.767Z,4.64
2023-03-15T18:14:00.164Z,4.60
2023-03-15T18:19:02.191Z,4.55
2023-03-15T18:24:04.169Z,4.51
2023-03-15T18:29:06.013Z,4.47
2023-03-15T18:34:07.940Z,4.43
2023-03-15T18:39:09.971Z,4.39
2023-03-15T18:44:11.875Z,4.37
2023-03-15T18:49:13.814Z,4.34
2023-03-15T18:54:15.598Z,4.29
2023-03-15T18:59:20.798Z,4.22
2023-03-15T19:04:23.126Z,4.13
2023-03-15T19:09:25.067Z,4.04
2023-03-15T19:14:26.890Z,3.96
2023-03-15T19:19:29.373Z,3.88
2023-03-15T19:24:33.223Z,3.80
2023-03-15T19:29:35.187Z,3.74
2023-03-15T19:34:37.097Z,3.67
2023-03-15T19:39:38.896Z,3.62
2023-03-15T19:44:40.948Z,3.58
2023-03-15T19:49:42.758Z,3.55
2023-03-15T19:54:44.751Z,3.51
2023-03-15T19:59:46.706Z,3.48
2023-03-15T20:04:48.474Z,3.45
2023-03-15T20:09:50.648Z,3.41
2023-03-15T20:14:52.459Z,3.40
2023-03-15T20:19:54.916Z,3.37
2023-03-15T20:24:56.717Z,3.35
2023-03-15T20:29:58.675Z,3.33
2023-03-15T20:35:02.330Z,3.32
2023-03-15T20:40:08.978Z,3.33
2023-03-15T20:45:12.694Z,3.30
2023-03-15T20:50:14.541Z,3.28
2023-03-15T20:55:16.547Z,3.28
2023-03-15T21:00:20.120Z,3.26
2023-03-15T21:05:22.769Z,3.22
2023-03-15T21:10:25.562Z,3.21
2023-03-15T21:15:27.470Z,3.19
2023-03-15T21:20:29.455Z,3.18
2023-03-15T21:25:32.711Z,3.18
2023-03-15T21:30:34.757Z,3.18
2023-03-15T21:35:36.700Z,3.15
2023-03-15T21:40:38.560Z,3.12
2023-03-15T21:45:42.083Z,3.07
2023-03-15T21:50:44.152Z,3.03
2023-03-15T21:55:46.337Z,3.00
2023-03-15T22:00:48.279Z,2.97
2023-03-15T22:05:50.206Z,2.92
2023-03-15T22:10:57.031Z,2.89
2023-03-15T22:15:59.197Z,2.85
2023-03-15T22:21:01.134Z,2.84
2023-03-15T22:26:02.942Z,2.81
2023-03-15T22:31:04.983Z,2.79
2023-03-15T22:36:07.221Z,2.75
2023-03-15T22:41:11.026Z,2.71
2023-03-15T22:46:13.257Z,2.71
2023-03-15T22:51:16.596Z,2.69
2023-03-15T22:56:18.494Z,2.70
2023-03-15T23:01:21.233Z,2.73
2023-03-15T23:06:23.006Z,2.73
2023-03-15T23:11:24.753Z,2.70
2023-03-15T23:16:26.562Z,2.70
2023-03-15T23:21:28.414Z,2.69
2023-03-15T23:26:37.575Z,2.67
2023-03-15T23:31:42.145Z,2.66
2023-03-15T23:36:45.324Z,2.67
2023-03-15T23:41:48.106Z,2.66
2023-03-15T23:46:50.002Z,2.63
2023-03-15T23:51:54.454Z,2.63
2023-03-15T23:56:56.188Z,2.60
